Huvudsida
METAR-TAF:

METAR-TAF

Flygplatser :

Jask, Iran

latitud: 26-38N, longitud: 057-46E, höjd: 3 m

Aktuellt väderrapport

Denna rapport gjordes för 38 minuter sedan, klockan 08:00 UTC
Vind 10 kt från ost/sydost
Temperatur 25°C
Fuktighet 79%
Tryck 1020 hPa
Sikt: 4000 m
torrdis

METAR: OIZJ 220800Z 12010KT 4000 HZ NSC 25/21 Q1020

Tid: 12:08 (08:38 UTC)


TAF: saknas

Aktuella väderrapporter och prognoser från 4000 flygplatser (METAR- och TAF-rapporter).

De tillgängliga stationerna syns som gula och röda prickar på kartan.

För musen över prickarna för att se namnen på stationerna.

Klicka sedan för att få väderrapporter och prognoser.

För att ändra kartan: Klicka på de gröna knapparna med ett svart kors på för att zooma in; den gröna knappen med ett streck på för att zooma ut; eller på de gröna pilarna för angränsande kartor.


METAR-TAF: